sensor_id;sensor_type;location;lat;lon;timestamp;temperature;humidity
652;DHT22;310;48.490;9.200;2022-08-23T00:00:31;23.00;26.10
652;DHT22;310;48.490;9.200;2022-08-23T00:02:56;23.20;26.30
652;DHT22;310;48.490;9.200;2022-08-23T00:05:22;23.20;25.30
652;DHT22;310;48.490;9.200;2022-08-23T00:07:48;23.10;26.60
652;DHT22;310;48.490;9.200;2022-08-23T00:10:15;23.20;25.50
652;DHT22;310;48.490;9.200;2022-08-23T00:12:43;23.30;25.80
652;DHT22;310;48.490;9.200;2022-08-23T00:15:11;23.40;25.80
652;DHT22;310;48.490;9.200;2022-08-23T00:17:37;23.50;26.00
652;DHT22;310;48.490;9.200;2022-08-23T00:20:09;23.50;26.40
652;DHT22;310;48.490;9.200;2022-08-23T00:22:36;23.40;25.60
652;DHT22;310;48.490;9.200;2022-08-23T00:25:04;23.60;25.80
652;DHT22;310;48.490;9.200;2022-08-23T00:27:30;23.60;25.80
652;DHT22;310;48.490;9.200;2022-08-23T00:29:56;23.60;25.50
652;DHT22;310;48.490;9.200;2022-08-23T00:32:28;23.60;25.50
652;DHT22;310;48.490;9.200;2022-08-23T00:34:55;23.50;25.50
652;DHT22;310;48.490;9.200;2022-08-23T00:37:21;23.60;25.80
652;DHT22;310;48.490;9.200;2022-08-23T00:39:47;23.70;25.70
652;DHT22;310;48.490;9.200;2022-08-23T00:45:23;23.50;25.60
652;DHT22;310;48.490;9.200;2022-08-23T00:48:10;23.60;26.90
652;DHT22;310;48.490;9.200;2022-08-23T00:50:43;23.40;27.00
652;DHT22;310;48.490;9.200;2022-08-23T00:53:17;23.50;25.60
652;DHT22;310;48.490;9.200;2022-08-23T00:55:47;23.40;27.40
652;DHT22;310;48.490;9.200;2022-08-23T00:58:16;23.40;27.90
652;DHT22;310;48.490;9.200;2022-08-23T01:00:43;23.10;28.20
652;DHT22;310;48.490;9.200;2022-08-23T01:03:10;23.10;28.40
652;DHT22;310;48.490;9.200;2022-08-23T01:05:56;23.00;28.10
652;DHT22;310;48.490;9.200;2022-08-23T01:08:25;23.00;27.20
652;DHT22;310;48.490;9.200;2022-08-23T01:11:33;23.10;27.00
652;DHT22;310;48.490;9.200;2022-08-23T01:13:56;23.00;28.00
652;DHT22;310;48.490;9.200;2022-08-23T01:16:53;22.90;27.70
652;DHT22;310;48.490;9.200;2022-08-23T01:19:34;22.90;28.10
652;DHT22;310;48.490;9.200;2022-08-23T01:22:06;22.90;28.50
652;DHT22;310;48.490;9.200;2022-08-23T01:24:35;22.90;29.20
652;DHT22;310;48.490;9.200;2022-08-23T01:27:01;22.80;29.60
652;DHT22;310;48.490;9.200;2022-08-23T01:29:27;22.70;28.60
652;DHT22;310;48.490;9.200;2022-08-23T01:31:53;22.70;29.50
652;DHT22;310;48.490;9.200;2022-08-23T01:34:24;22.50;29.70
652;DHT22;310;48.490;9.200;2022-08-23T01:36:51;22.40;29.10
652;DHT22;310;48.490;9.200;2022-08-23T01:39:16;22.20;29.20
652;DHT22;310;48.490;9.200;2022-08-23T01:41:42;22.40;28.70
652;DHT22;310;48.490;9.200;2022-08-23T01:44:08;22.50;29.20
652;DHT22;310;48.490;9.200;2022-08-23T01:46:34;22.50;30.00
652;DHT22;310;48.490;9.200;2022-08-23T01:49:03;22.50;29.50
652;DHT22;310;48.490;9.200;2022-08-23T01:51:29;22.40;28.80
652;DHT22;310;48.490;9.200;2022-08-23T01:53:54;22.20;30.60
652;DHT22;310;48.490;9.200;2022-08-23T01:56:21;22.00;31.50
652;DHT22;310;48.490;9.200;2022-08-23T01:58:48;22.00;31.20
652;DHT22;310;48.490;9.200;2022-08-23T02:01:14;21.80;32.20
652;DHT22;310;48.490;9.200;2022-08-23T02:03:40;21.70;31.70
652;DHT22;310;48.490;9.200;2022-08-23T02:06:06;21.40;30.50
652;DHT22;310;48.490;9.200;2022-08-23T02:08:32;21.00;31.80
652;DHT22;310;48.490;9.200;2022-08-23T02:11:20;20.60;33.60
652;DHT22;310;48.490;9.200;2022-08-23T02:13:47;20.20;35.10
652;DHT22;310;48.490;9.200;2022-08-23T02:16:21;20.30;35.00
652;DHT22;310;48.490;9.200;2022-08-23T02:18:48;20.40;35.50
652;DHT22;310;48.490;9.200;2022-08-23T02:21:13;20.60;35.00
652;DHT22;310;48.490;9.200;2022-08-23T02:23:39;20.80;34.60
652;DHT22;310;48.490;9.200;2022-08-23T02:26:04;20.90;34.20
652;DHT22;310;48.490;9.200;2022-08-23T02:28:31;21.00;33.60
652;DHT22;310;48.490;9.200;2022-08-23T02:30:57;20.60;33.80
652;DHT22;310;48.490;9.200;2022-08-23T02:33:22;20.40;35.10
652;DHT22;310;48.490;9.200;2022-08-23T02:35:48;20.50;36.00
652;DHT22;310;48.490;9.200;2022-08-23T02:38:14;20.60;36.30
652;DHT22;310;48.490;9.200;2022-08-23T02:40:41;20.60;36.60
652;DHT22;310;48.490;9.200;2022-08-23T02:43:07;20.60;36.20
652;DHT22;310;48.490;9.200;2022-08-23T02:45:33;20.70;35.90
652;DHT22;310;48.490;9.200;2022-08-23T02:47:59;20.60;36.10
652;DHT22;310;48.490;9.200;2022-08-23T02:50:26;20.50;37.90
652;DHT22;310;48.490;9.200;2022-08-23T02:52:53;20.50;37.60
652;DHT22;310;48.490;9.200;2022-08-23T02:55:19;20.40;37.30
652;DHT22;310;48.490;9.200;2022-08-23T02:57:45;20.50;36.50
652;DHT22;310;48.490;9.200;2022-08-23T03:00:12;20.40;37.60
652;DHT22;310;48.490;9.200;2022-08-23T03:02:38;20.30;37.60
652;DHT22;310;48.490;9.200;2022-08-23T03:05:06;20.30;38.50
652;DHT22;310;48.490;9.200;2022-08-23T03:07:31;20.20;38.50
652;DHT22;310;48.490;9.200;2022-08-23T03:09:58;20.20;39.10
652;DHT22;310;48.490;9.200;2022-08-23T03:12:23;20.20;38.40
652;DHT22;310;48.490;9.200;2022-08-23T03:14:49;20.30;38.70
652;DHT22;310;48.490;9.200;2022-08-23T03:17:19;20.20;38.20
652;DHT22;310;48.490;9.200;2022-08-23T03:19:44;20.20;38.00
652;DHT22;310;48.490;9.200;2022-08-23T03:22:10;20.00;38.90
652;DHT22;310;48.490;9.200;2022-08-23T03:24:36;19.90;39.20
652;DHT22;310;48.490;9.200;2022-08-23T03:27:02;20.00;39.10
652;DHT22;310;48.490;9.200;2022-08-23T03:29:28;19.90;40.10
652;DHT22;310;48.490;9.200;2022-08-23T03:31:54;20.00;40.10
652;DHT22;310;48.490;9.200;2022-08-23T03:34:19;20.20;38.60
652;DHT22;310;48.490;9.200;2022-08-23T03:36:45;20.10;38.50
652;DHT22;310;48.490;9.200;2022-08-23T03:39:12;20.00;38.70
652;DHT22;310;48.490;9.200;2022-08-23T03:41:37;19.80;39.30
652;DHT22;310;48.490;9.200;2022-08-23T03:44:03;19.80;40.60
652;DHT22;310;48.490;9.200;2022-08-23T03:46:29;19.80;38.90
652;DHT22;310;48.490;9.200;2022-08-23T03:48:57;19.90;39.90
652;DHT22;310;48.490;9.200;2022-08-23T03:51:25;19.80;39.90
652;DHT22;310;48.490;9.200;2022-08-23T03:53:51;19.70;39.70
652;DHT22;310;48.490;9.200;2022-08-23T03:58:54;19.70;39.70
652;DHT22;310;48.490;9.200;2022-08-23T04:01:21;19.60;41.30
652;DHT22;310;48.490;9.200;2022-08-23T04:03:47;19.80;39.80
652;DHT22;310;48.490;9.200;2022-08-23T04:06:14;20.00;38.30
652;DHT22;310;48.490;9.200;2022-08-23T04:08:40;19.90;39.00
652;DHT22;310;48.490;9.200;2022-08-23T04:11:07;19.90;39.50
652;DHT22;310;48.490;9.200;2022-08-23T04:13:34;19.90;40.60
652;DHT22;310;48.490;9.200;2022-08-23T04:16:01;19.60;40.00
652;DHT22;310;48.490;9.200;2022-08-23T04:18:28;19.60;40.90
652;DHT22;310;48.490;9.200;2022-08-23T04:20:57;19.60;39.70
652;DHT22;310;48.490;9.200;2022-08-23T04:23:24;19.60;40.60
652;DHT22;310;48.490;9.200;2022-08-23T04:25:53;19.60;40.00
652;DHT22;310;48.490;9.200;2022-08-23T04:28:18;19.50;40.70
652;DHT22;310;48.490;9.200;2022-08-23T04:30:44;19.60;40.40
652;DHT22;310;48.490;9.200;2022-08-23T04:33:10;19.60;40.40
652;DHT22;310;48.490;9.200;2022-08-23T04:35:37;19.60;41.30
652;DHT22;310;48.490;9.200;2022-08-23T04:38:03;19.50;40.40
652;DHT22;310;48.490;9.200;2022-08-23T04:40:28;19.40;42.10
652;DHT22;310;48.490;9.200;2022-08-23T04:43:13;19.60;41.30
652;DHT22;310;48.490;9.200;2022-08-23T04:45:39;19.40;40.40
652;DHT22;310;48.490;9.200;2022-08-23T04:48:06;19.20;40.60
652;DHT22;310;48.490;9.200;2022-08-23T04:50:32;19.10;40.80
652;DHT22;310;48.490;9.200;2022-08-23T04:52:58;19.20;40.10
652;DHT22;310;48.490;9.200;2022-08-23T04:55:24;19.10;40.10
652;DHT22;310;48.490;9.200;2022-08-23T04:57:50;19.20;41.20
652;DHT22;310;48.490;9.200;2022-08-23T05:00:16;19.40;40.50
652;DHT22;310;48.490;9.200;2022-08-23T05:02:41;19.40;40.60
652;DHT22;310;48.490;9.200;2022-08-23T05:05:08;19.30;41.00
652;DHT22;310;48.490;9.200;2022-08-23T05:07:35;19.40;41.10
652;DHT22;310;48.490;9.200;2022-08-23T05:10:02;19.40;41.10
652;DHT22;310;48.490;9.200;2022-08-23T05:12:28;19.30;41.30
652;DHT22;310;48.490;9.200;2022-08-23T05:14:54;19.40;41.10
652;DHT22;310;48.490;9.200;2022-08-23T05:17:20;19.40;41.60
652;DHT22;310;48.490;9.200;2022-08-23T05:19:45;19.50;41.20
652;DHT22;310;48.490;9.200;2022-08-23T05:22:11;19.50;40.30
652;DHT22;310;48.490;9.200;2022-08-23T05:24:37;19.60;40.70
652;DHT22;310;48.490;9.200;2022-08-23T05:27:02;19.80;41.00
652;DHT22;310;48.490;9.200;2022-08-23T05:29:28;19.80;41.00
652;DHT22;310;48.490;9.200;2022-08-23T05:31:54;19.90;41.50
652;DHT22;310;48.490;9.200;2022-08-23T05:34:21;19.90;41.00
652;DHT22;310;48.490;9.200;2022-08-23T05:36:47;19.80;40.00
652;DHT22;310;48.490;9.200;2022-08-23T05:39:13;19.90;40.20
652;DHT22;310;48.490;9.200;2022-08-23T05:41:41;20.00;39.80
652;DHT22;310;48.490;9.200;2022-08-23T05:44:07;20.20;41.00
652;DHT22;310;48.490;9.200;2022-08-23T05:46:33;20.10;40.20
652;DHT22;310;48.490;9.200;2022-08-23T05:48:58;20.20;40.10
652;DHT22;310;48.490;9.200;2022-08-23T05:51:27;20.30;38.80
652;DHT22;310;48.490;9.200;2022-08-23T05:53:57;20.30;39.30
652;DHT22;310;48.490;9.200;2022-08-23T05:56:34;20.40;38.10
652;DHT22;310;48.490;9.200;2022-08-23T05:59:04;20.10;37.10
652;DHT22;310;48.490;9.200;2022-08-23T06:01:31;19.90;37.70
652;DHT22;310;48.490;9.200;2022-08-23T06:03:58;19.40;38.80
652;DHT22;310;48.490;9.200;2022-08-23T06:06:24;19.40;39.80
652;DHT22;310;48.490;9.200;2022-08-23T06:08:51;19.40;39.60
652;DHT22;310;48.490;9.200;2022-08-23T06:11:20;19.90;40.60
652;DHT22;310;48.490;9.200;2022-08-23T06:13:50;19.90;37.90
652;DHT22;310;48.490;9.200;2022-08-23T06:16:18;19.60;39.80
652;DHT22;310;48.490;9.200;2022-08-23T06:18:45;19.60;39.20
652;DHT22;310;48.490;9.200;2022-08-23T06:21:12;19.80;39.80
652;DHT22;310;48.490;9.200;2022-08-23T06:23:39;19.60;38.80
652;DHT22;310;48.490;9.200;2022-08-23T06:26:23;19.40;37.90
652;DHT22;310;48.490;9.200;2022-08-23T06:28:52;19.50;38.20
652;DHT22;310;48.490;9.200;2022-08-23T06:31:21;19.50;38.10
652;DHT22;310;48.490;9.200;2022-08-23T06:34:05;19.50;36.70
652;DHT22;310;48.490;9.200;2022-08-23T06:36:32;19.70;37.70
652;DHT22;310;48.490;9.200;2022-08-23T06:38:58;19.90;36.70
652;DHT22;310;48.490;9.200;2022-08-23T06:41:23;20.10;37.20
652;DHT22;310;48.490;9.200;2022-08-23T06:43:49;20.20;36.90
652;DHT22;310;48.490;9.200;2022-08-23T06:46:19;19.90;36.90
652;DHT22;310;48.490;9.200;2022-08-23T06:48:46;19.80;37.60
652;DHT22;310;48.490;9.200;2022-08-23T06:51:24;20.10;37.70
652;DHT22;310;48.490;9.200;2022-08-23T06:53:54;20.70;35.60
652;DHT22;310;48.490;9.200;2022-08-23T06:56:25;20.80;35.20
652;DHT22;310;48.490;9.200;2022-08-23T06:58:52;20.80;35.20
652;DHT22;310;48.490;9.200;2022-08-23T07:01:22;20.80;35.30
652;DHT22;310;48.490;9.200;2022-08-23T07:03:56;20.80;34.60
652;DHT22;310;48.490;9.200;2022-08-23T07:06:23;20.90;35.50
652;DHT22;310;48.490;9.200;2022-08-23T07:08:50;21.00;34.00
652;DHT22;310;48.490;9.200;2022-08-23T07:11:16;21.10;33.50
652;DHT22;310;48.490;9.200;2022-08-23T07:13:42;21.00;34.30
652;DHT22;310;48.490;9.200;2022-08-23T07:16:08;21.50;34.70
652;DHT22;310;48.490;9.200;2022-08-23T07:18:34;21.70;34.30
652;DHT22;310;48.490;9.200;2022-08-23T07:21:01;21.60;32.80
652;DHT22;310;48.490;9.200;2022-08-23T07:23:29;21.70;32.40
652;DHT22;310;48.490;9.200;2022-08-23T07:25:59;21.60;32.90
652;DHT22;310;48.490;9.200;2022-08-23T07:28:25;21.50;33.30
652;DHT22;310;48.490;9.200;2022-08-23T07:30:51;21.50;33.50
652;DHT22;310;48.490;9.200;2022-08-23T07:33:17;21.80;33.50
652;DHT22;310;48.490;9.200;2022-08-23T07:35:48;22.00;32.10
652;DHT22;310;48.490;9.200;2022-08-23T07:38:15;21.60;33.20
652;DHT22;310;48.490;9.200;2022-08-23T07:40:41;21.50;33.10
652;DHT22;310;48.490;9.200;2022-08-23T07:43:06;21.40;33.70
652;DHT22;310;48.490;9.200;2022-08-23T07:45:34;21.90;32.80
652;DHT22;310;48.490;9.200;2022-08-23T07:48:01;21.50;32.80
652;DHT22;310;48.490;9.200;2022-08-23T07:50:27;22.00;34.20
652;DHT22;310;48.490;9.200;2022-08-23T07:52:53;22.50;31.90
652;DHT22;310;48.490;9.200;2022-08-23T07:55:18;22.70;31.00
652;DHT22;310;48.490;9.200;2022-08-23T07:57:44;23.00;30.10
652;DHT22;310;48.490;9.200;2022-08-23T08:00:10;23.40;29.30
652;DHT22;310;48.490;9.200;2022-08-23T08:02:36;23.40;29.60
652;DHT22;310;48.490;9.200;2022-08-23T08:05:02;22.70;30.60
652;DHT22;310;48.490;9.200;2022-08-23T08:07:27;22.30;31.60
652;DHT22;310;48.490;9.200;2022-08-23T08:09:53;22.20;32.40
652;DHT22;310;48.490;9.200;2022-08-23T08:12:18;22.60;32.20
652;DHT22;310;48.490;9.200;2022-08-23T08:14:45;23.20;31.30
652;DHT22;310;48.490;9.200;2022-08-23T08:17:13;23.60;30.30
652;DHT22;310;48.490;9.200;2022-08-23T08:19:38;23.60;30.10
652;DHT22;310;48.490;9.200;2022-08-23T08:22:06;23.80;29.90
652;DHT22;310;48.490;9.200;2022-08-23T08:24:32;24.10;29.40
652;DHT22;310;48.490;9.200;2022-08-23T08:26:57;24.30;29.30
652;DHT22;310;48.490;9.200;2022-08-23T08:29:23;24.40;28.90
652;DHT22;310;48.490;9.200;2022-08-23T08:31:49;24.40;28.00
652;DHT22;310;48.490;9.200;2022-08-23T08:34:16;23.90;28.30
652;DHT22;310;48.490;9.200;2022-08-23T08:36:45;23.80;29.60
652;DHT22;310;48.490;9.200;2022-08-23T08:39:14;24.20;28.40
652;DHT22;310;48.490;9.200;2022-08-23T08:52:33;24.50;28.40
652;DHT22;310;48.490;9.200;2022-08-23T08:55:11;24.70;28.20
652;DHT22;310;48.490;9.200;2022-08-23T08:57:43;24.50;28.60
652;DHT22;310;48.490;9.200;2022-08-23T09:00:13;24.80;28.20
652;DHT22;310;48.490;9.200;2022-08-23T09:02:41;24.40;28.20
652;DHT22;310;48.490;9.200;2022-08-23T09:05:16;24.30;28.30
652;DHT22;310;48.490;9.200;2022-08-23T09:11:03;25.50;27.20
652;DHT22;310;48.490;9.200;2022-08-23T09:13:43;25.60;26.30
652;DHT22;310;48.490;9.200;2022-08-23T09:18:44;24.90;26.80
652;DHT22;310;48.490;9.200;2022-08-23T09:21:10;25.30;25.40
652;DHT22;310;48.490;9.200;2022-08-23T09:23:42;25.60;24.50
652;DHT22;310;48.490;9.200;2022-08-23T09:26:26;25.40;25.40
652;DHT22;310;48.490;9.200;2022-08-23T09:28:57;26.30;24.70
652;DHT22;310;48.490;9.200;2022-08-23T09:31:42;26.10;24.90
652;DHT22;310;48.490;9.200;2022-08-23T09:34:09;26.70;25.50
652;DHT22;310;48.490;9.200;2022-08-23T09:36:40;27.00;23.60
652;DHT22;310;48.490;9.200;2022-08-23T09:39:22;27.10;24.40
652;DHT22;310;48.490;9.200;2022-08-23T09:41:49;27.40;23.20
652;DHT22;310;48.490;9.200;2022-08-23T09:44:33;27.50;24.70
652;DHT22;310;48.490;9.200;2022-08-23T09:47:05;27.80;24.70
652;DHT22;310;48.490;9.200;2022-08-23T09:49:31;27.90;22.50
652;DHT22;310;48.490;9.200;2022-08-23T09:52:09;27.90;21.10
652;DHT22;310;48.490;9.200;2022-08-23T09:54:39;28.10;22.20
652;DHT22;310;48.490;9.200;2022-08-23T09:57:07;28.20;20.30
652;DHT22;310;48.490;9.200;2022-08-23T09:59:44;28.20;24.00
652;DHT22;310;48.490;9.200;2022-08-23T10:02:31;28.10;21.20
652;DHT22;310;48.490;9.200;2022-08-23T10:05:47;28.20;20.90
652;DHT22;310;48.490;9.200;2022-08-23T10:07:57;28.50;19.80
652;DHT22;310;48.490;9.200;2022-08-23T10:10:43;28.90;19.20
652;DHT22;310;48.490;9.200;2022-08-23T10:13:12;29.00;18.00
652;DHT22;310;48.490;9.200;2022-08-23T10:15:56;29.20;18.10
652;DHT22;310;48.490;9.200;2022-08-23T10:22:08;28.80;19.90
652;DHT22;310;48.490;9.200;2022-08-23T10:24:47;28.90;18.30
652;DHT22;310;48.490;9.200;2022-08-23T10:30:20;26.90;17.70
652;DHT22;310;48.490;9.200;2022-08-23T10:35:31;30.00;17.50
652;DHT22;310;48.490;9.200;2022-08-23T10:46:22;30.30;15.40
652;DHT22;310;48.490;9.200;2022-08-23T10:48:57;30.50;16.50
652;DHT22;310;48.490;9.200;2022-08-23T10:54:18;30.60;15.80
652;DHT22;310;48.490;9.200;2022-08-23T10:56:50;30.80;15.50
652;DHT22;310;48.490;9.200;2022-08-23T10:59:20;31.00;17.50
652;DHT22;310;48.490;9.200;2022-08-23T11:05:18;30.50;15.90
652;DHT22;310;48.490;9.200;2022-08-23T11:07:20;29.70;15.20
652;DHT22;310;48.490;9.200;2022-08-23T11:10:16;29.40;16.80
652;DHT22;310;48.490;9.200;2022-08-23T11:18:35;29.80;17.50
652;DHT22;310;48.490;9.200;2022-08-23T11:28:46;31.10;15.30
652;DHT22;310;48.490;9.200;2022-08-23T11:36:34;35.60;11.40
652;DHT22;310;48.490;9.200;2022-08-23T11:41:30;35.90;10.60
652;DHT22;310;48.490;9.200;2022-08-23T11:46:34;36.80;7.60
652;DHT22;310;48.490;9.200;2022-08-23T12:02:34;39.20;6.50
652;DHT22;310;48.490;9.200;2022-08-23T12:05:20;38.90;6.10
652;DHT22;310;48.490;9.200;2022-08-23T12:07:53;38.90;5.40
652;DHT22;310;48.490;9.200;2022-08-23T12:21:22;40.00;4.60
652;DHT22;310;48.490;9.200;2022-08-23T12:23:51;40.40;3.90
652;DHT22;310;48.490;9.200;2022-08-23T12:29:24;39.20;4.90
652;DHT22;310;48.490;9.200;2022-08-23T12:31:55;38.90;4.10
652;DHT22;310;48.490;9.200;2022-08-23T12:34:36;38.90;5.00
652;DHT22;310;48.490;9.200;2022-08-23T12:39:49;38.10;6.00
652;DHT22;310;48.490;9.200;2022-08-23T12:42:27;37.60;4.70
652;DHT22;310;48.490;9.200;2022-08-23T12:47:29;37.30;6.10
652;DHT22;310;48.490;9.200;2022-08-23T12:50:02;36.70;5.60
652;DHT22;310;48.490;9.200;2022-08-23T12:52:31;34.20;7.00
652;DHT22;310;48.490;9.200;2022-08-23T12:54:57;34.00;8.30
652;DHT22;310;48.490;9.200;2022-08-23T12:57:36;34.00;7.90
652;DHT22;310;48.490;9.200;2022-08-23T13:00:22;32.30;9.20
652;DHT22;310;48.490;9.200;2022-08-23T13:03:02;32.40;9.50
652;DHT22;310;48.490;9.200;2022-08-23T13:08:09;33.40;8.60
652;DHT22;310;48.490;9.200;2022-08-23T13:10:38;33.70;8.80
652;DHT22;310;48.490;9.200;2022-08-23T13:13:10;33.00;9.10
652;DHT22;310;48.490;9.200;2022-08-23T13:15:57;33.20;10.30
652;DHT22;310;48.490;9.200;2022-08-23T13:18:39;33.50;9.00
652;DHT22;310;48.490;9.200;2022-08-23T13:24:00;33.50;8.90
652;DHT22;310;48.490;9.200;2022-08-23T13:26:33;33.60;8.80
652;DHT22;310;48.490;9.200;2022-08-23T13:29:04;33.90;9.70
652;DHT22;310;48.490;9.200;2022-08-23T13:32:02;34.00;8.60
652;DHT22;310;48.490;9.200;2022-08-23T13:34:44;34.30;7.70
652;DHT22;310;48.490;9.200;2022-08-23T13:37:30;34.40;9.50
652;DHT22;310;48.490;9.200;2022-08-23T13:40:06;34.20;8.10
652;DHT22;310;48.490;9.200;2022-08-23T13:42:44;34.30;8.80
652;DHT22;310;48.490;9.200;2022-08-23T13:47:47;34.40;7.60
652;DHT22;310;48.490;9.200;2022-08-23T13:50:26;33.50;8.00
652;DHT22;310;48.490;9.200;2022-08-23T13:52:52;33.90;8.30
652;DHT22;310;48.490;9.200;2022-08-23T13:55:18;34.40;10.20
652;DHT22;310;48.490;9.200;2022-08-23T13:57:44;34.50;9.10
652;DHT22;310;48.490;9.200;2022-08-23T14:00:10;34.50;7.70
652;DHT22;310;48.490;9.200;2022-08-23T14:02:37;34.50;8.00
652;DHT22;310;48.490;9.200;2022-08-23T14:05:04;34.30;9.40
652;DHT22;310;48.490;9.200;2022-08-23T14:07:30;34.20;8.00
652;DHT22;310;48.490;9.200;2022-08-23T14:09:55;34.10;9.70
652;DHT22;310;48.490;9.200;2022-08-23T14:12:25;34.20;9.00
652;DHT22;310;48.490;9.200;2022-08-23T14:14:52;34.30;8.30
652;DHT22;310;48.490;9.200;2022-08-23T14:17:17;34.50;7.80
652;DHT22;310;48.490;9.200;2022-08-23T14:19:44;34.80;6.50
652;DHT22;310;48.490;9.200;2022-08-23T14:22:12;35.40;7.50
652;DHT22;310;48.490;9.200;2022-08-23T14:24:38;35.50;7.20
652;DHT22;310;48.490;9.200;2022-08-23T14:27:04;35.60;7.20
652;DHT22;310;48.490;9.200;2022-08-23T14:29:29;35.70;6.80
652;DHT22;310;48.490;9.200;2022-08-23T14:31:57;34.70;7.40
652;DHT22;310;48.490;9.200;2022-08-23T14:34:24;33.30;8.10
652;DHT22;310;48.490;9.200;2022-08-23T14:36:51;35.00;7.90
652;DHT22;310;48.490;9.200;2022-08-23T14:39:20;36.20;5.90
652;DHT22;310;48.490;9.200;2022-08-23T14:41:47;37.00;6.60
652;DHT22;310;48.490;9.200;2022-08-23T14:44:13;36.20;6.10
652;DHT22;310;48.490;9.200;2022-08-23T14:46:41;36.10;7.50
652;DHT22;310;48.490;9.200;2022-08-23T14:49:06;37.00;5.80
652;DHT22;310;48.490;9.200;2022-08-23T14:51:35;37.50;5.60
652;DHT22;310;48.490;9.200;2022-08-23T14:54:03;37.10;6.50
652;DHT22;310;48.490;9.200;2022-08-23T14:56:30;37.00;8.00
652;DHT22;310;48.490;9.200;2022-08-23T14:58:56;36.80;6.20
652;DHT22;310;48.490;9.200;2022-08-23T15:01:22;36.80;7.40
652;DHT22;310;48.490;9.200;2022-08-23T15:03:48;36.50;8.00
652;DHT22;310;48.490;9.200;2022-08-23T15:06:16;36.40;8.20
652;DHT22;310;48.490;9.200;2022-08-23T15:08:42;36.00;7.40
652;DHT22;310;48.490;9.200;2022-08-23T15:11:09;35.20;7.60
652;DHT22;310;48.490;9.200;2022-08-23T15:13:36;35.00;7.20
652;DHT22;310;48.490;9.200;2022-08-23T15:16:05;34.50;8.20
652;DHT22;310;48.490;9.200;2022-08-23T15:18:32;34.30;8.10
652;DHT22;310;48.490;9.200;2022-08-23T15:20:59;34.00;8.70
652;DHT22;310;48.490;9.200;2022-08-23T15:23:25;33.40;9.00
652;DHT22;310;48.490;9.200;2022-08-23T15:25:50;33.50;9.70
652;DHT22;310;48.490;9.200;2022-08-23T15:28:18;33.50;9.80
652;DHT22;310;48.490;9.200;2022-08-23T15:30:44;33.50;10.00
652;DHT22;310;48.490;9.200;2022-08-23T15:33:10;33.40;9.30
652;DHT22;310;48.490;9.200;2022-08-23T15:35:42;33.30;10.00
652;DHT22;310;48.490;9.200;2022-08-23T15:38:09;32.80;9.50
652;DHT22;310;48.490;9.200;2022-08-23T15:40:35;32.40;10.20
652;DHT22;310;48.490;9.200;2022-08-23T15:43:01;32.40;10.20
652;DHT22;310;48.490;9.200;2022-08-23T15:45:28;32.30;10.00
652;DHT22;310;48.490;9.200;2022-08-23T15:47:55;32.30;11.30
652;DHT22;310;48.490;9.200;2022-08-23T15:50:25;32.30;10.90
652;DHT22;310;48.490;9.200;2022-08-23T15:52:51;32.40;10.90
652;DHT22;310;48.490;9.200;2022-08-23T15:55:18;32.30;11.60
652;DHT22;310;48.490;9.200;2022-08-23T15:57:49;32.10;11.20
652;DHT22;310;48.490;9.200;2022-08-23T16:00:18;32.10;9.80
652;DHT22;310;48.490;9.200;2022-08-23T16:02:45;32.10;12.60
652;DHT22;310;48.490;9.200;2022-08-23T16:05:11;32.10;11.50
652;DHT22;310;48.490;9.200;2022-08-23T16:07:39;32.20;11.70
652;DHT22;310;48.490;9.200;2022-08-23T16:10:06;32.00;12.50
652;DHT22;310;48.490;9.200;2022-08-23T16:12:33;32.10;12.00
652;DHT22;310;48.490;9.200;2022-08-23T16:14:58;32.30;10.90
652;DHT22;310;48.490;9.200;2022-08-23T16:17:24;32.30;12.70
652;DHT22;310;48.490;9.200;2022-08-23T16:19:50;32.20;12.70
652;DHT22;310;48.490;9.200;2022-08-23T16:22:17;32.30;9.70
652;DHT22;310;48.490;9.200;2022-08-23T16:24:42;32.60;9.40
652;DHT22;310;48.490;9.200;2022-08-23T16:27:09;32.80;8.70
652;DHT22;310;48.490;9.200;2022-08-23T16:29:35;32.80;11.90
652;DHT22;310;48.490;9.200;2022-08-23T16:32:02;32.80;10.70
652;DHT22;310;48.490;9.200;2022-08-23T16:34:27;32.60;9.40
652;DHT22;310;48.490;9.200;2022-08-23T16:36:59;32.40;9.70
652;DHT22;310;48.490;9.200;2022-08-23T16:39:27;32.60;9.30
652;DHT22;310;48.490;9.200;2022-08-23T16:41:53;32.50;10.20
652;DHT22;310;48.490;9.200;2022-08-23T16:44:19;32.60;11.10
652;DHT22;310;48.490;9.200;2022-08-23T16:46:45;32.50;9.50
652;DHT22;310;48.490;9.200;2022-08-23T16:49:13;32.60;9.80
652;DHT22;310;48.490;9.200;2022-08-23T16:51:39;32.40;10.50
652;DHT22;310;48.490;9.200;2022-08-23T16:54:05;32.40;11.00
652;DHT22;310;48.490;9.200;2022-08-23T16:56:34;31.90;9.70
652;DHT22;310;48.490;9.200;2022-08-23T16:59:02;31.70;11.10
652;DHT22;310;48.490;9.200;2022-08-23T17:01:29;31.70;10.60
652;DHT22;310;48.490;9.200;2022-08-23T17:04:06;31.80;10.20
652;DHT22;310;48.490;9.200;2022-08-23T17:06:32;32.10;10.10
652;DHT22;310;48.490;9.200;2022-08-23T17:08:57;32.20;9.70
652;DHT22;310;48.490;9.200;2022-08-23T17:11:23;32.10;10.10
652;DHT22;310;48.490;9.200;2022-08-23T17:13:49;32.10;11.10
652;DHT22;310;48.490;9.200;2022-08-23T17:16:14;31.90;12.50
652;DHT22;310;48.490;9.200;2022-08-23T17:18:40;31.70;12.50
652;DHT22;310;48.490;9.200;2022-08-23T17:21:06;31.70;12.20
652;DHT22;310;48.490;9.200;2022-08-23T17:23:32;31.50;15.80
652;DHT22;310;48.490;9.200;2022-08-23T17:25:57;31.40;14.10
652;DHT22;310;48.490;9.200;2022-08-23T17:28:23;31.20;12.50
652;DHT22;310;48.490;9.200;2022-08-23T17:30:50;31.00;14.00
652;DHT22;310;48.490;9.200;2022-08-23T17:33:15;30.90;13.70
652;DHT22;310;48.490;9.200;2022-08-23T17:35:42;30.70;13.70
652;DHT22;310;48.490;9.200;2022-08-23T17:38:08;30.70;14.00
652;DHT22;310;48.490;9.200;2022-08-23T17:40:36;30.50;14.70
652;DHT22;310;48.490;9.200;2022-08-23T17:43:03;30.40;14.50
652;DHT22;310;48.490;9.200;2022-08-23T17:45:32;30.20;15.80
652;DHT22;310;48.490;9.200;2022-08-23T17:47:58;30.10;15.40
652;DHT22;310;48.490;9.200;2022-08-23T17:50:24;29.90;16.90
652;DHT22;310;48.490;9.200;2022-08-23T17:52:49;29.90;14.70
652;DHT22;310;48.490;9.200;2022-08-23T17:55:16;29.90;15.30
652;DHT22;310;48.490;9.200;2022-08-23T17:57:45;29.90;15.80
652;DHT22;310;48.490;9.200;2022-08-23T18:00:13;29.90;15.60
652;DHT22;310;48.490;9.200;2022-08-23T18:02:39;29.80;16.80
652;DHT22;310;48.490;9.200;2022-08-23T18:05:06;29.70;16.30
652;DHT22;310;48.490;9.200;2022-08-23T18:07:32;29.60;16.20
652;DHT22;310;48.490;9.200;2022-08-23T18:09:58;29.50;17.00
652;DHT22;310;48.490;9.200;2022-08-23T18:12:24;29.50;16.90
652;DHT22;310;48.490;9.200;2022-08-23T18:14:49;29.40;16.30
652;DHT22;310;48.490;9.200;2022-08-23T18:17:16;29.20;16.30
652;DHT22;310;48.490;9.200;2022-08-23T18:19:42;29.00;17.20
652;DHT22;310;48.490;9.200;2022-08-23T18:22:07;29.00;17.40
652;DHT22;310;48.490;9.200;2022-08-23T18:24:33;28.80;17.90
652;DHT22;310;48.490;9.200;2022-08-23T18:26:59;28.80;19.20
652;DHT22;310;48.490;9.200;2022-08-23T18:29:43;28.70;19.60
652;DHT22;310;48.490;9.200;2022-08-23T18:32:10;28.50;19.60
652;DHT22;310;48.490;9.200;2022-08-23T18:34:36;28.40;19.80
652;DHT22;310;48.490;9.200;2022-08-23T18:37:02;28.30;19.90
652;DHT22;310;48.490;9.200;2022-08-23T18:39:28;28.30;21.40